createdAt,value
2017-10-09T00:01:03.788Z," 6.38"
2017-10-09T00:06:03.558Z," 6.59"
2017-10-09T00:11:03.762Z," 6.24"
2017-10-09T00:16:03.564Z," 6.34"
2017-10-09T00:21:06.397Z," 6.32"
2017-10-09T00:26:03.481Z," 6.10"
2017-10-09T00:31:03.200Z," 6.09"
2017-10-09T00:36:03.943Z," 6.34"
2017-10-09T00:41:03.129Z," 5.97"
2017-10-09T00:46:03.932Z," 6.16"
2017-10-09T00:51:03.655Z," 5.74"
2017-10-09T00:56:03.402Z," 5.92"
2017-10-09T01:01:03.190Z," 6.03"
2017-10-09T01:06:03.963Z," 6.31"
2017-10-09T01:11:03.158Z," 5.65"
2017-10-09T01:16:03.948Z," 5.25"
2017-10-09T01:21:03.785Z," 5.32"
2017-10-09T01:26:03.536Z," 5.34"
2017-10-09T01:31:03.324Z," 4.80"
2017-10-09T01:36:03.010Z," 4.74"
2017-10-09T01:41:03.199Z," 4.77"
2017-10-09T01:46:03.905Z," 4.55"
2017-10-09T01:51:03.741Z," 4.67"
2017-10-09T01:56:03.521Z," 5.22"
2017-10-09T02:01:03.234Z," 5.19"
2017-10-09T02:06:03.972Z," 4.59"
2017-10-09T02:11:03.075Z," 4.57"
2017-10-09T02:16:03.822Z," 4.51"
2017-10-09T02:21:03.712Z," 4.41"
2017-10-09T02:26:03.463Z," 4.28"
2017-10-09T02:31:03.219Z," 4.29"
2017-10-09T02:36:03.045Z," 4.29"
2017-10-09T02:41:03.254Z," 4.03"
2017-10-09T02:46:03.969Z," 4.06"
2017-10-09T02:51:03.682Z," 4.06"
2017-10-09T02:56:03.530Z," 4.17"
2017-10-09T03:01:03.282Z," 4.09"
2017-10-09T03:06:03.016Z," 4.01"
2017-10-09T03:11:03.213Z," 4.34"
2017-10-09T03:16:04.408Z," 4.32"
2017-10-09T03:21:03.784Z," 4.03"
2017-10-09T03:26:03.567Z," 4.23"
2017-10-09T03:31:03.318Z," 4.23"
2017-10-09T03:36:03.070Z," 3.96"
2017-10-09T03:41:03.233Z," 3.90"
2017-10-09T03:46:03.956Z," 4.10"
2017-10-09T03:51:03.786Z," 4.43"
2017-10-09T03:56:03.555Z," 4.51"
2017-10-09T04:01:03.294Z," 4.47"
2017-10-09T04:06:03.052Z," 4.42"
2017-10-09T04:11:03.212Z," 4.28"
2017-10-09T04:16:03.952Z," 4.70"
2017-10-09T04:21:03.819Z," 4.54"
2017-10-09T04:26:03.159Z," 4.70"
2017-10-09T04:31:03.950Z," 4.41"
2017-10-09T04:36:03.743Z," 4.63"
2017-10-09T04:41:03.991Z," 5.12"
2017-10-09T04:46:03.780Z," 4.80"
2017-10-09T04:51:03.558Z," 4.84"
2017-10-09T04:56:03.364Z," 4.77"
2017-10-09T05:01:03.131Z," 4.80"
2017-10-09T05:06:03.932Z," 4.92"
2017-10-09T05:11:03.087Z," 5.18"
2017-10-09T05:16:03.862Z," 5.22"
2017-10-09T05:21:03.700Z," 4.93"
2017-10-09T05:26:03.439Z," 4.74"
2017-10-09T05:31:03.196Z," 4.74"
2017-10-09T05:36:04.011Z," 5.15"
2017-10-09T05:41:03.205Z," 5.28"
2017-10-09T05:46:03.954Z," 5.00"
2017-10-09T05:51:03.664Z," 4.83"
2017-10-09T05:56:03.468Z," 5.03"
2017-10-09T06:01:03.349Z," 4.89"
2017-10-09T06:06:03.140Z," 5.02"
2017-10-09T06:11:03.288Z," 5.13"
2017-10-09T06:16:03.110Z," 5.26"
2017-10-09T06:21:03.950Z," 5.48"
2017-10-09T06:26:03.897Z," 5.68"
2017-10-09T06:31:03.639Z," 5.72"
2017-10-09T06:36:03.394Z," 5.90"
2017-10-09T06:41:03.580Z," 5.83"
2017-10-09T06:46:03.341Z," 6.00"
2017-10-09T06:51:03.096Z," 6.16"
2017-10-09T06:56:03.899Z," 6.29"
2017-10-09T07:01:03.636Z," 6.55"
2017-10-09T07:06:03.386Z," 6.42"
2017-10-09T07:11:03.557Z," 6.74"
2017-10-09T07:16:03.319Z," 6.83"
2017-10-09T07:21:03.172Z," 6.87"
2017-10-09T07:26:03.921Z," 6.92"
2017-10-09T07:31:03.681Z," 6.91"
2017-10-09T07:36:03.451Z," 6.94"
2017-10-09T07:41:03.591Z," 7.16"
2017-10-09T07:46:03.363Z," 7.39"
2017-10-09T07:51:03.115Z," 7.29"
2017-10-09T07:56:03.848Z," 7.47"
2017-10-09T08:01:03.616Z," 7.65"
2017-10-09T08:06:03.365Z," 7.65"
2017-10-09T08:11:03.584Z," 7.82"
2017-10-09T08:16:03.330Z," 7.94"
2017-10-09T08:21:03.135Z," 7.94"
2017-10-09T08:26:03.868Z," 8.13"
2017-10-09T08:31:03.660Z," 8.18"
2017-10-09T08:36:03.421Z," 8.26"
2017-10-09T08:41:03.624Z," 8.43"
2017-10-09T08:46:03.418Z," 8.36"
2017-10-09T08:51:03.220Z," 8.57"
2017-10-09T08:56:02.981Z," 8.59"
2017-10-09T09:01:03.781Z," 8.69"
2017-10-09T09:06:03.469Z," 8.79"
2017-10-09T09:11:03.602Z," 8.79"
2017-10-09T09:16:03.407Z," 8.88"
2017-10-09T09:21:03.315Z," 8.88"
2017-10-09T09:26:03.081Z," 9.01"
2017-10-09T09:31:03.862Z," 9.09"
2017-10-09T09:36:03.597Z," 9.03"
2017-10-09T09:41:03.817Z," 9.05"
2017-10-09T09:46:03.609Z," 9.03"
2017-10-09T09:51:03.383Z," 9.03"
2017-10-09T09:56:03.132Z," 9.36"
2017-10-09T10:01:03.898Z," 9.28"
2017-10-09T10:06:03.654Z," 9.43"
2017-10-09T10:11:03.841Z," 9.46"
2017-10-09T10:16:03.653Z," 9.48"
2017-10-09T10:21:03.470Z," 9.45"
2017-10-09T10:26:03.188Z," 9.48"
2017-10-09T10:31:03.995Z," 9.48"
2017-10-09T10:36:03.740Z," 9.48"
2017-10-09T10:41:03.967Z," 9.94"
2017-10-09T10:46:03.760Z,10.25
2017-10-09T10:51:03.501Z,10.37
2017-10-09T10:56:03.225Z,10.27
2017-10-09T11:01:03.360Z,10.34
2017-10-09T11:06:03.116Z,10.65
2017-10-09T11:11:03.324Z,10.75
2017-10-09T11:16:03.090Z,10.47
2017-10-09T11:21:04.025Z,10.68
2017-10-09T11:26:03.733Z,10.63
2017-10-09T11:31:03.472Z,10.68
2017-10-09T11:36:03.301Z,10.72
2017-10-09T11:41:03.534Z,10.83
2017-10-09T11:46:03.347Z,10.80
2017-10-09T11:51:03.134Z,10.80
2017-10-09T11:56:03.911Z,10.83
2017-10-09T12:01:03.625Z,10.78
2017-10-09T12:06:03.454Z,10.95
2017-10-09T12:11:03.672Z,10.93
2017-10-09T12:16:04.522Z,10.98
2017-10-09T12:21:05.145Z,11.26
2017-10-09T12:26:05.148Z,11.07
2017-10-09T12:31:04.677Z,11.18
2017-10-09T12:36:07.118Z,11.41
2017-10-09T12:41:05.130Z,11.26
2017-10-09T12:46:05.012Z,11.26
2017-10-09T12:51:04.600Z,11.26
2017-10-09T12:56:04.828Z,11.31
2017-10-09T13:01:05.152Z,11.33
2017-10-09T13:06:04.957Z,11.33
2017-10-09T13:11:06.415Z,11.33
2017-10-09T13:16:05.158Z,11.33
2017-10-09T13:21:05.110Z,11.33
2017-10-09T13:26:04.422Z,11.36
2017-10-09T13:31:04.846Z,11.45
2017-10-09T13:36:03.782Z,11.45
2017-10-09T13:41:03.622Z,11.45
2017-10-09T13:46:03.404Z,11.45
2017-10-09T13:51:03.362Z,11.49
2017-10-09T13:56:03.510Z,11.45
2017-10-09T14:01:03.765Z,11.38
2017-10-09T14:06:03.748Z,11.33
2017-10-09T14:11:03.844Z,11.35
2017-10-09T14:16:03.608Z,11.35
2017-10-09T14:21:03.494Z,11.33
2017-10-09T14:26:03.305Z,11.38
2017-10-09T14:31:03.050Z,11.51
2017-10-09T14:41:03.614Z,11.51
2017-10-09T14:46:03.230Z,11.38
2017-10-09T14:51:04.442Z,11.43
2017-10-09T14:56:04.194Z,11.41
2017-10-09T15:01:03.718Z,11.41
2017-10-09T15:06:03.499Z,11.39
2017-10-09T15:11:03.735Z,11.44
2017-10-09T15:16:03.629Z,11.47
2017-10-09T15:21:03.438Z,11.44
2017-10-09T15:26:03.238Z,11.34
2017-10-09T15:31:04.578Z,11.31
2017-10-09T15:36:03.510Z,11.34
2017-10-09T15:41:05.035Z,11.34
2017-10-09T15:46:04.043Z,11.54
2017-10-09T15:51:03.748Z,11.71
2017-10-09T15:56:03.485Z,11.72
2017-10-09T16:01:03.265Z,11.72
2017-10-09T16:06:03.074Z,11.72
2017-10-09T16:11:03.278Z,11.80
2017-10-09T16:16:03.063Z,11.79
2017-10-09T16:21:03.907Z,11.74
2017-10-09T16:26:03.661Z,11.72
2017-10-09T16:31:03.405Z,11.80
2017-10-09T16:36:03.201Z,11.82
2017-10-09T16:41:03.377Z,11.82
2017-10-09T16:46:03.145Z,11.74
2017-10-09T16:51:03.914Z,11.74
2017-10-09T16:56:03.706Z,11.79
2017-10-09T17:01:03.468Z,12.00
2017-10-09T17:06:03.315Z,11.87
2017-10-09T17:11:03.545Z,11.87
2017-10-09T17:16:03.567Z,11.89
2017-10-09T17:21:03.363Z,11.92
2017-10-09T17:26:03.252Z,11.89
2017-10-09T17:31:03.082Z,11.89
2017-10-09T17:36:03.793Z,11.95
2017-10-09T17:41:03.122Z,12.05
2017-10-09T17:46:03.868Z,12.08
2017-10-09T17:51:03.663Z,12.05
2017-10-09T17:56:03.428Z,12.05
2017-10-09T18:01:03.429Z,11.92
2017-10-09T18:06:03.383Z,11.85
2017-10-09T18:11:04.070Z,11.98
2017-10-09T18:16:04.413Z,11.85
2017-10-09T18:21:03.212Z,11.75
2017-10-09T18:26:04.292Z,11.80
2017-10-09T18:31:03.417Z,11.71
2017-10-09T18:36:04.373Z,11.72
2017-10-09T18:41:04.802Z,11.71
2017-10-09T18:46:04.279Z,11.52
2017-10-09T18:51:05.005Z,11.54
2017-10-09T18:56:04.735Z,11.39
2017-10-09T19:01:04.534Z,11.44
2017-10-09T19:06:04.137Z,11.36
2017-10-09T19:11:11.048Z,11.34
2017-10-09T19:16:07.372Z,11.34
2017-10-09T19:21:03.646Z,11.34
2017-10-09T19:26:05.155Z,11.24
2017-10-09T19:31:03.606Z,11.24
2017-10-09T19:36:03.329Z,11.24
2017-10-09T19:41:03.542Z,11.13
2017-10-09T19:46:03.349Z,11.11
2017-10-09T19:51:03.188Z,11.14
2017-10-09T19:56:04.115Z,11.13
2017-10-09T20:01:03.869Z,11.01
2017-10-09T20:06:04.158Z,11.01
2017-10-09T20:11:03.864Z,10.93
2017-10-09T20:16:03.987Z,10.97
2017-10-09T20:21:03.923Z,10.84
2017-10-09T20:26:03.622Z,10.87
2017-10-09T20:31:03.718Z,10.89
2017-10-09T20:36:03.693Z,10.91
2017-10-09T20:41:03.859Z,10.74
2017-10-09T20:46:03.666Z,10.76
2017-10-09T20:51:03.757Z,10.73
2017-10-09T20:56:03.520Z,10.83
2017-10-09T21:01:03.247Z,10.84
2017-10-09T21:06:03.041Z,10.72
2017-10-09T21:11:03.211Z,10.66
2017-10-09T21:16:03.077Z,10.64
2017-10-09T21:21:03.973Z,10.68
2017-10-09T21:26:03.758Z,10.68
2017-10-09T21:31:03.505Z,10.75
2017-10-09T21:36:03.323Z,10.67
2017-10-09T21:41:03.493Z,10.64
2017-10-09T21:46:03.286Z,10.65
2017-10-09T21:51:03.438Z,10.67
2017-10-09T21:56:03.184Z,10.65
2017-10-09T22:01:03.869Z,10.65
2017-10-09T22:06:03.709Z,10.72
2017-10-09T22:11:03.927Z,10.64
2017-10-09T22:16:04.176Z,10.72
2017-10-09T22:21:03.909Z,10.72
2017-10-09T22:26:04.125Z,10.62
2017-10-09T22:31:04.194Z,10.67
2017-10-09T22:36:11.000Z,10.79
2017-10-09T22:41:03.481Z,10.91
2017-10-09T22:46:03.861Z,10.91
2017-10-09T22:51:03.768Z,10.91
2017-10-09T22:56:03.628Z,11.04
2017-10-09T23:01:03.546Z,11.02
2017-10-09T23:06:03.414Z,11.02
2017-10-09T23:11:04.446Z,11.01
2017-10-09T23:16:03.270Z,10.91
2017-10-09T23:21:03.141Z,10.91
2017-10-09T23:26:03.907Z,10.99
2017-10-09T23:31:03.702Z,10.99
2017-10-09T23:36:03.456Z,11.01
2017-10-09T23:41:03.693Z,11.01
2017-10-09T23:46:03.563Z,11.01
2017-10-09T23:51:03.341Z,11.01
2017-10-09T23:56:03.078Z,11.01
